Time;durP1;ratioP1;P1;durP2;ratioP2;P2;SDS_P1;SDS_P2;PMS_P1;PMS_P2;Temp;Humidity;BMP_temperature;BMP_pressure;BME280_temperature;BME280_humidity;BME280_pressure;Samples;Min_cycle;Max_cycle;Signal;HPM_P1;HPM_P2
2022/12/28 00:05:37;;;;;;;15.73;12.00;;;;;6.10;99788.00;;;;16630099;28;20238;-47
2022/12/28 00:13:39;;;;;;;16.43;14.53;;;;;5.80;99774.00;;;;16642277;28;20236;-47
2022/12/28 00:21:44;;;;;;;18.13;12.37;;;;;6.10;99764.00;;;;16645360;28;20717;-47
2022/12/28 00:29:46;;;;;;;21.30;16.00;;;;;5.80;99752.00;;;;16652119;28;20225;-47
2022/12/28 00:47:13;;;;;;;16.77;12.73;;;;;5.90;99755.00;;;;16624965;28;20228;-47
2022/12/28 00:55:16;;;;;;;13.50;11.47;;;;;5.70;99747.00;;;;16607845;28;20242;-45
2022/12/28 01:03:19;;;;;;;13.57;11.80;;;;;5.60;99739.00;;;;16645636;28;20237;-47
2022/12/28 01:11:23;;;;;;;13.80;12.27;;;;;5.30;99735.00;;;;16624041;28;20231;-47
2022/12/28 01:19:27;;;;;;;14.07;12.50;;;;;5.40;99715.00;;;;16623490;28;20208;-47
2022/12/28 01:27:29;;;;;;;14.83;12.13;;;;;5.20;99706.00;;;;16641330;28;20299;-47
2022/12/28 01:35:33;;;;;;;16.70;12.07;;;;;5.20;99698.00;;;;16623140;28;20622;-47
2022/12/28 01:43:40;;;;;;;16.87;12.10;;;;;5.10;99682.00;;;;16605157;28;20319;-48
2022/12/28 01:51:50;;;;;;;12.63;10.70;;;;;5.10;99682.00;;;;16606403;28;20223;-47
2022/12/28 01:59:55;;;;;;;15.23;10.33;;;;;5.20;99660.00;;;;16612497;28;20225;-46
2022/12/28 02:08:04;;;;;;;13.13;10.13;;;;;5.20;99646.00;;;;16590349;28;20203;-46
2022/12/28 02:16:07;;;;;;;17.30;11.33;;;;;5.30;99635.00;;;;16632163;28;20219;-46
2022/12/28 02:24:35;;;;;;;13.23;11.83;;;;;5.30;99634.00;;;;16600326;28;20237;-47
2022/12/28 02:32:52;;;;;;;13.00;11.30;;;;;5.40;99628.00;;;;16599464;28;20590;-46
2022/12/28 02:41:01;;;;;;;12.47;10.23;;;;;5.40;99617.00;;;;16597974;28;20602;-47
2022/12/28 02:57:50;;;;;;;11.93;10.60;;;;;5.80;99577.00;;;;16615665;28;20204;-47
2022/12/28 03:14:21;;;;;;;9.97;8.93;;;;;6.00;99542.00;;;;16616522;28;20362;-46
2022/12/28 03:31:03;;;;;;;12.60;11.30;;;;;5.90;99527.00;;;;16612822;28;20307;-46
2022/12/28 03:39:14;;;;;;;13.13;10.60;;;;;5.60;99543.00;;;;16597399;28;20217;-46
2022/12/28 03:47:18;;;;;;;11.80;9.97;;;;;6.30;99539.00;;;;16640980;28;20237;-46
2022/12/28 03:55:22;;;;;;;12.03;9.40;;;;;5.80;99525.00;;;;16615303;28;20761;-47
2022/12/28 04:03:25;;;;;;;12.10;10.40;;;;;5.90;99512.00;;;;16605256;28;20712;-47
2022/12/28 04:11:29;;;;;;;13.57;10.67;;;;;5.70;99498.00;;;;16621191;28;20735;-46
2022/12/28 04:19:33;;;;;;;11.97;10.77;;;;;5.80;99495.00;;;;16611844;28;20351;-46
2022/12/28 04:27:37;;;;;;;13.33;10.07;;;;;5.90;99500.00;;;;16618788;28;20223;-46
2022/12/28 04:35:47;;;;;;;11.43;9.40;;;;;6.10;99462.00;;;;16608923;28;20698;-46
2022/12/28 04:43:51;;;;;;;9.40;8.50;;;;;6.20;99468.00;;;;16588074;28;20297;-46
2022/12/28 04:51:54;;;;;;;12.47;9.43;;;;;6.30;99465.00;;;;16640435;28;20818;-47
2022/12/28 04:59:57;;;;;;;8.90;8.00;;;;;6.40;99460.00;;;;16631231;28;20234;-47
2022/12/28 05:08:01;;;;;;;11.20;8.90;;;;;6.70;99475.00;;;;16642021;28;20207;-46
2022/12/28 05:16:06;;;;;;;8.77;7.70;;;;;6.80;99448.00;;;;16626643;28;20227;-46
2022/12/28 05:24:09;;;;;;;8.90;8.00;;;;;6.80;99452.00;;;;16626706;28;20224;-47
2022/12/28 05:32:13;;;;;;;10.70;7.30;;;;;7.20;99440.00;;;;16639716;28;20312;-47
2022/12/28 05:40:15;;;;;;;7.80;6.13;;;;;7.30;99440.00;;;;16602175;28;20232;-47
2022/12/28 05:48:19;;;;;;;7.20;6.47;;;;;7.40;99443.00;;;;16629334;28;20235;-46
2022/12/28 05:56:23;;;;;;;5.93;5.43;;;;;7.40;99432.00;;;;16642794;28;20220;-47
2022/12/28 06:04:27;;;;;;;8.57;6.90;;;;;7.70;99429.00;;;;16607763;28;20256;-47
2022/12/28 06:12:30;;;;;;;8.10;6.33;;;;;7.40;99410.00;;;;16629939;28;20217;-48
2022/12/28 06:20:33;;;;;;;7.33;6.60;;;;;7.30;99408.00;;;;16632806;28;20225;-47
2022/12/28 06:28:37;;;;;;;6.20;5.60;;;;;7.50;99403.00;;;;16616149;28;20213;-47
2022/12/28 06:36:42;;;;;;;6.50;5.13;;;;;8.00;99398.00;;;;16603880;28;20238;-47
2022/12/28 06:44:45;;;;;;;9.47;6.33;;;;;7.90;99397.00;;;;16597828;28;20226;-48
2022/12/28 06:52:48;;;;;;;7.50;5.50;;;;;8.10;99396.00;;;;16641695;28;20247;-47
2022/12/28 07:00:51;;;;;;;8.07;5.13;;;;;8.20;99384.00;;;;16599126;28;20221;-47
2022/12/28 07:08:59;;;;;;;6.97;4.70;;;;;8.30;99387.00;;;;16621700;28;20216;-47
2022/12/28 07:17:01;;;;;;;6.27;5.60;;;;;7.90;99382.00;;;;16630770;28;20313;-47
2022/12/28 07:25:06;;;;;;;8.87;6.70;;;;;7.80;99371.00;;;;16627797;28;20230;-46
2022/12/28 07:33:08;;;;;;;8.13;7.33;;;;;7.60;99358.00;;;;16598619;28;20222;-46
2022/12/28 07:41:13;;;;;;;9.50;7.50;;;;;7.60;99367.00;;;;16623151;28;20233;-46
2022/12/28 07:49:16;;;;;;;8.87;7.97;;;;;7.60;99370.00;;;;16620093;28;20577;-47
2022/12/28 07:57:20;;;;;;;8.70;7.73;;;;;7.50;99364.00;;;;16625516;28;20237;-45
2022/12/28 08:05:22;;;;;;;12.33;9.97;;;;;8.00;99357.00;;;;16604471;28;20229;-46
2022/12/28 08:13:26;;;;;;;8.20;7.37;;;;;7.90;99352.00;;;;16600784;28;20220;-47
2022/12/28 08:21:31;;;;;;;9.17;7.73;;;;;7.30;99353.00;;;;16615838;28;20276;-46
2022/12/28 08:29:34;;;;;;;9.63;8.40;;;;;7.90;99337.00;;;;16624881;28;20206;-46
2022/12/28 08:37:37;;;;;;;12.33;9.70;;;;;8.50;99322.00;;;;16599864;28;20849;-47
2022/12/28 08:45:40;;;;;;;7.90;7.03;;;;;8.60;99327.00;;;;16624508;28;20226;-46
2022/12/28 08:53:43;;;;;;;9.10;8.03;;;;;8.80;99319.00;;;;16649912;28;20219;-45
2022/12/28 09:01:47;;;;;;;10.97;7.90;;;;;8.50;99326.00;;;;16625508;28;20228;-46
2022/12/28 09:09:50;;;;;;;7.83;7.13;;;;;9.00;99312.00;;;;16626855;28;20226;-46
2022/12/28 09:17:53;;;;;;;11.57;7.73;;;;;9.20;99317.00;;;;16624990;28;20191;-46
2022/12/28 09:25:56;;;;;;;8.60;7.40;;;;;9.10;99313.00;;;;16631294;28;20654;-46
2022/12/28 09:34:00;;;;;;;10.93;9.73;;;;;9.10;99299.00;;;;16621710;28;20225;-46
2022/12/28 09:42:04;;;;;;;8.80;7.97;;;;;9.30;99287.00;;;;16642501;22;20235;-81
2022/12/28 09:50:28;;;;;;;7.70;6.90;;;;;9.70;99271.00;;;;16657882;28;20241;-80
2022/12/28 09:58:33;;;;;;;7.27;6.57;;;;;9.80;99276.00;;;;16676304;28;20234;-78
2022/12/28 10:06:39;;;;;;;7.30;6.40;;;;;9.90;99258.00;;;;16678327;28;20222;-78
2022/12/28 10:14:42;;;;;;;10.37;6.37;;;;;10.30;99248.00;;;;16672509;28;20224;-79
2022/12/28 10:22:48;;;;;;;10.73;8.50;;;;;11.10;99236.00;;;;16662785;28;20221;-80
2022/12/28 10:31:05;;;;;;;7.10;6.40;;;;;11.50;99221.00;;;;16662755;28;20222;-81
2022/12/28 10:39:15;;;;;;;7.10;5.77;;;;;11.90;99196.00;;;;16668936;28;20767;-80
2022/12/28 10:47:28;;;;;;;9.10;5.80;;;;;12.70;99181.00;;;;16710261;22;20601;-48
2022/12/28 10:55:33;;;;;;;5.20;3.80;;;;;13.10;99162.00;;;;16695899;28;20814;-48
2022/12/28 11:03:37;;;;;;;4.17;3.60;;;;;12.90;99156.00;;;;16685316;28;20310;-48
2022/12/28 11:11:41;;;;;;;6.03;5.43;;;;;13.20;99147.00;;;;16697517;28;20873;-49
2022/12/28 11:19:43;;;;;;;5.20;3.73;;;;;13.20;99146.00;;;;16697085;28;20264;-50
2022/12/28 11:27:48;;;;;;;3.60;3.30;;;;;13.30;99139.00;;;;16687059;28;20240;-51
2022/12/28 11:35:53;;;;;;;3.90;3.50;;;;;13.00;99122.00;;;;16681994;28;20816;-51
2022/12/28 11:43:57;;;;;;;5.23;3.37;;;;;13.10;99115.00;;;;16681555;28;20256;-48
2022/12/28 11:52:42;;;;;;;2.60;2.40;;;;;13.40;99104.00;;;;16687435;28;20227;-49
2022/12/28 12:00:50;;;;;;;4.10;3.67;;;;;13.30;99085.00;;;;16710821;28;20226;-48
2022/12/28 12:08:52;;;;;;;5.30;3.43;;;;;13.80;99076.00;;;;16704648;28;20241;-48
2022/12/28 12:17:02;;;;;;;4.37;3.10;;;;;13.60;99062.00;;;;16708573;28;20210;-49
2022/12/28 12:25:09;;;;;;;3.77;3.23;;;;;13.40;99055.00;;;;16711523;28;20225;-47
2022/12/28 12:33:15;;;;;;;3.47;3.17;;;;;14.10;99041.00;;;;16702613;28;20217;-51
2022/12/28 12:41:26;;;;;;;3.70;3.40;;;;;13.90;99016.00;;;;16707215;28;20721;-49
2022/12/28 12:49:52;;;;;;;5.93;3.30;;;;;13.90;99005.00;;;;16691135;28;20230;-47
2022/12/28 12:58:01;;;;;;;24.37;15.10;;;;;14.20;98999.00;;;;16677941;28;20610;-50
2022/12/28 13:06:05;;;;;;;34.80;24.63;;;;;14.40;98988.00;;;;16699233;28;20714;-48
2022/12/28 13:14:17;;;;;;;1.73;1.63;;;;;13.80;98983.00;;;;16710618;28;20217;-48
2022/12/28 13:22:32;;;;;;;3.00;2.70;;;;;13.70;98980.00;;;;16708637;28;20728;-47
2022/12/28 13:30:35;;;;;;;3.07;1.50;;;;;14.00;98974.00;;;;16710903;28;20283;-50
2022/12/28 13:38:39;;;;;;;1.70;1.47;;;;;14.00;98959.00;;;;16705797;28;20207;-49
2022/12/28 13:46:45;;;;;;;5.47;4.53;;;;;14.10;98954.00;;;;16707242;28;20521;-48
2022/12/28 13:54:52;;;;;;;6.03;5.50;;;;;13.90;98939.00;;;;16705999;28;20283;-49
2022/12/28 14:02:56;;;;;;;4.03;2.33;;;;;13.80;98949.00;;;;16707500;28;20582;-50
2022/12/28 14:11:00;;;;;;;4.40;2.33;;;;;13.80;98946.00;;;;16709300;28;20220;-49
2022/12/28 14:19:04;;;;;;;2.43;1.43;;;;;13.60;98942.00;;;;16704274;28;20217;-48
2022/12/28 14:27:08;;;;;;;2.60;2.13;;;;;13.50;98937.00;;;;16709904;28;20338;-49
2022/12/28 14:35:18;;;;;;;3.37;2.23;;;;;13.40;98933.00;;;;16710405;28;20194;-49
2022/12/28 14:43:24;;;;;;;7.43;2.60;;;;;13.20;98913.00;;;;16709307;28;20221;-48
2022/12/28 14:51:29;;;;;;;3.70;2.73;;;;;13.10;98904.00;;;;16706882;28;20229;-49
2022/12/28 14:59:38;;;;;;;8.83;2.70;;;;;13.10;98900.00;;;;16709271;28;20224;-49
2022/12/28 15:07:40;;;;;;;5.13;3.00;;;;;13.00;98891.00;;;;16693923;28;20382;-48
2022/12/28 15:15:44;;;;;;;3.23;2.80;;;;;12.80;98906.00;;;;16674314;28;20201;-48
2022/12/28 15:23:49;;;;;;;4.20;3.10;;;;;12.80;98899.00;;;;16685783;28;20217;-49
2022/12/28 15:31:53;;;;;;;10.13;5.00;;;;;12.60;98891.00;;;;16708205;28;20332;-47
2022/12/28 15:39:55;;;;;;;6.13;3.80;;;;;12.50;98887.00;;;;16689118;28;20806;-50
2022/12/28 15:47:59;;;;;;;8.13;5.53;;;;;12.50;98882.00;;;;16703138;28;20267;-49
2022/12/28 15:56:02;;;;;;;6.53;5.67;;;;;12.30;98875.00;;;;16696410;28;20197;-48
2022/12/28 16:04:05;;;;;;;5.47;4.23;;;;;12.20;98887.00;;;;16703602;28;20236;-48
2022/12/28 16:12:08;;;;;;;5.40;3.50;;;;;12.20;98887.00;;;;16697385;28;20609;-48
2022/12/28 16:20:12;;;;;;;4.50;4.10;;;;;12.00;98878.00;;;;16697017;28;20230;-46
2022/12/28 16:28:15;;;;;;;4.47;3.70;;;;;12.00;98868.00;;;;16698959;28;20234;-48
2022/12/28 16:36:18;;;;;;;8.97;5.13;;;;;11.80;98859.00;;;;16713870;28;20281;-49
2022/12/28 16:44:23;;;;;;;9.93;6.07;;;;;11.80;98852.00;;;;16694607;28;20717;-48
2022/12/28 16:52:27;;;;;;;4.80;4.03;;;;;11.80;98838.00;;;;16698532;28;20228;-48
2022/12/28 17:00:29;;;;;;;4.83;4.43;;;;;11.60;98833.00;;;;16712198;28;20709;-49
2022/12/28 17:08:36;;;;;;;6.60;4.67;;;;;11.70;98836.00;;;;16705445;28;20322;-49
2022/12/28 17:16:38;;;;;;;5.60;4.33;;;;;11.60;98835.00;;;;16698343;28;20305;-48
2022/12/28 17:24:42;;;;;;;5.00;4.17;;;;;11.50;98839.00;;;;16684147;28;20225;-48
2022/12/28 17:32:45;;;;;;;5.67;5.07;;;;;11.60;98835.00;;;;16711808;28;20710;-48
2022/12/28 17:40:48;;;;;;;16.40;10.03;;;;;11.50;98827.00;;;;16701184;28;20295;-49
2022/12/28 17:48:52;;;;;;;4.63;4.00;;;;;11.70;98810.00;;;;16701692;28;20924;-48
2022/12/28 17:56:56;;;;;;;6.73;5.07;;;;;11.40;98806.00;;;;16710676;28;20218;-49
2022/12/28 18:04:58;;;;;;;7.27;6.00;;;;;11.20;98786.00;;;;16711023;28;20225;-47
2022/12/28 18:13:02;;;;;;;7.93;7.10;;;;;11.10;98780.00;;;;16704166;28;20304;-47
2022/12/28 18:21:08;;;;;;;7.47;6.70;;;;;11.00;98766.00;;;;16705420;28;20241;-46
2022/12/28 18:29:12;;;;;;;6.67;6.00;;;;;11.00;98764.00;;;;16698529;28;20584;-46
2022/12/28 18:37:14;;;;;;;8.40;7.20;;;;;11.00;98759.00;;;;16705331;28;20213;-47
2022/12/28 18:45:18;;;;;;;7.10;6.23;;;;;10.90;98744.00;;;;16698634;28;20311;-46
2022/12/28 18:53:20;;;;;;;8.30;6.77;;;;;11.00;98733.00;;;;16681761;28;20755;-45
2022/12/28 19:01:27;;;;;;;7.07;6.37;;;;;11.00;98725.00;;;;16703618;28;20229;-47
2022/12/28 19:09:29;;;;;;;9.30;7.80;;;;;10.80;98710.00;;;;16697641;28;20357;-46
2022/12/28 19:17:33;;;;;;;10.57;8.20;;;;;10.90;98708.00;;;;16714955;28;20209;-47
2022/12/28 19:25:37;;;;;;;27.83;24.70;;;;;9.90;98701.00;;;;16710970;28;20226;-46
2022/12/28 19:33:41;;;;;;;11.87;9.40;;;;;8.50;98701.00;;;;16693995;28;20360;-47
2022/12/28 19:41:44;;;;;;;11.93;9.20;;;;;8.40;98703.00;;;;16693475;28;20651;-46
2022/12/28 19:49:48;;;;;;;11.23;8.90;;;;;8.50;98687.00;;;;16698886;28;20230;-46
2022/12/28 19:57:50;;;;;;;17.63;11.83;;;;;9.90;98675.00;;;;16683873;28;20293;-46
2022/12/28 20:05:54;;;;;;;8.93;8.00;;;;;10.10;98673.00;;;;16693276;28;20229;-46
2022/12/28 20:13:57;;;;;;;8.00;7.10;;;;;9.80;98666.00;;;;16684300;28;20308;-46
2022/12/28 20:22:01;;;;;;;10.07;8.87;;;;;10.20;98665.00;;;;16667067;28;20214;-46
2022/12/28 20:30:04;;;;;;;28.57;25.60;;;;;9.90;98664.00;;;;16697259;28;20224;-46
2022/12/28 20:38:08;;;;;;;9.80;7.63;;;;;9.80;98661.00;;;;16700310;28;20241;-46
2022/12/28 20:46:11;;;;;;;9.00;7.60;;;;;9.50;98662.00;;;;16712671;28;20225;-45
2022/12/28 20:54:15;;;;;;;21.07;18.97;;;;;8.90;98673.00;;;;16704201;28;20569;-46
2022/12/28 21:02:18;;;;;;;78.33;47.30;;;;;10.00;98653.00;;;;16714375;28;20305;-47
2022/12/28 21:10:21;;;;;;;27.67;17.40;;;;;10.00;98644.00;;;;16711710;28;20226;-47
2022/12/28 21:18:24;;;;;;;15.20;12.47;;;;;10.40;98619.00;;;;16707016;28;20652;-48
2022/12/28 21:26:28;;;;;;;8.60;7.70;;;;;8.90;98643.00;;;;16715257;28;20226;-47
2022/12/28 21:34:30;;;;;;;7.20;6.50;;;;;9.50;98613.00;;;;16709074;28;20201;-48
2022/12/28 21:42:34;;;;;;;4.83;4.40;;;;;8.80;98608.00;;;;16703942;28;20225;-47
2022/12/28 21:50:37;;;;;;;6.80;6.20;;;;;9.30;98590.00;;;;16689077;28;20248;-47
2022/12/28 21:58:41;;;;;;;6.80;6.00;;;;;9.70;98594.00;;;;16706797;28;20212;-48
2022/12/28 22:06:43;;;;;;;28.17;13.47;;;;;8.80;98600.00;;;;16703253;28;20236;-47
2022/12/28 22:14:47;;;;;;;27.07;13.27;;;;;9.10;98591.00;;;;16690513;28;20198;-47
2022/12/28 22:22:49;;;;;;;5.80;5.30;;;;;10.00;98583.00;;;;16653863;28;20229;-47
2022/12/28 22:30:53;;;;;;;6.13;4.73;;;;;10.60;98574.00;;;;16659236;28;20238;-47
2022/12/28 22:38:55;;;;;;;7.37;5.77;;;;;10.80;98560.00;;;;16668189;28;20217;-47
2022/12/28 22:46:59;;;;;;;9.20;6.83;;;;;10.20;98569.00;;;;16674287;28;20428;-47
2022/12/28 22:55:01;;;;;;;11.77;7.60;;;;;10.10;98560.00;;;;16679071;28;20205;-47
2022/12/28 23:03:07;;;;;;;6.00;5.10;;;;;10.50;98545.00;;;;16673505;28;20222;-46
2022/12/28 23:27:51;;;;;;;5.67;4.87;;;;;9.10;98565.00;;;;16709459;28;20229;-47
2022/12/28 23:35:55;;;;;;;4.40;4.00;;;;;8.70;98555.00;;;;16708850;28;20201;-47
2022/12/28 23:43:57;;;;;;;6.87;6.27;;;;;8.60;98548.00;;;;16700547;28;20223;-47
2022/12/28 23:52:01;;;;;;;5.43;4.83;;;;;8.90;98527.00;;;;16705252;28;20229;-47
